sensor_id;sensor_type;location;lat;lon;timestamp;P1;durP1;ratioP1;P2;durP2;ratioP2
56425;SDS011;42330;43.620;3.856;2022-08-19T00:01:45;0.93;;;0.40;;
56425;SDS011;42330;43.620;3.856;2022-08-19T00:04:13;1.15;;;0.40;;
56425;SDS011;42330;43.620;3.856;2022-08-19T00:06:41;1.35;;;0.40;;
56425;SDS011;42330;43.620;3.856;2022-08-19T00:09:13;1.42;;;0.40;;
56425;SDS011;42330;43.620;3.856;2022-08-19T00:11:41;1.85;;;0.40;;
56425;SDS011;42330;43.620;3.856;2022-08-19T00:14:09;2.15;;;0.30;;
56425;SDS011;42330;43.620;3.856;2022-08-19T00:16:37;3.15;;;0.30;;
56425;SDS011;42330;43.620;3.856;2022-08-19T00:19:03;2.50;;;0.40;;
56425;SDS011;42330;43.620;3.856;2022-08-19T00:21:30;1.70;;;0.40;;
56425;SDS011;42330;43.620;3.856;2022-08-19T00:23:56;1.58;;;0.40;;
56425;SDS011;42330;43.620;3.856;2022-08-19T00:26:23;1.25;;;0.40;;
56425;SDS011;42330;43.620;3.856;2022-08-19T00:28:50;0.80;;;0.30;;
56425;SDS011;42330;43.620;3.856;2022-08-19T00:31:16;1.95;;;0.30;;
56425;SDS011;42330;43.620;3.856;2022-08-19T00:33:42;0.80;;;0.40;;
56425;SDS011;42330;43.620;3.856;2022-08-19T00:36:08;0.90;;;0.40;;
56425;SDS011;42330;43.620;3.856;2022-08-19T00:38:35;1.35;;;0.38;;
56425;SDS011;42330;43.620;3.856;2022-08-19T00:41:03;0.85;;;0.30;;
56425;SDS011;42330;43.620;3.856;2022-08-19T00:43:29;1.15;;;0.40;;
56425;SDS011;42330;43.620;3.856;2022-08-19T00:45:55;1.95;;;0.40;;
56425;SDS011;42330;43.620;3.856;2022-08-19T00:48:21;1.25;;;0.40;;
56425;SDS011;42330;43.620;3.856;2022-08-19T00:50:48;1.25;;;0.35;;
56425;SDS011;42330;43.620;3.856;2022-08-19T00:53:18;1.35;;;0.40;;
56425;SDS011;42330;43.620;3.856;2022-08-19T00:55:47;2.83;;;0.50;;
56425;SDS011;42330;43.620;3.856;2022-08-19T00:58:16;2.45;;;0.40;;
56425;SDS011;42330;43.620;3.856;2022-08-19T01:00:45;1.63;;;0.40;;
56425;SDS011;42330;43.620;3.856;2022-08-19T01:03:13;2.05;;;0.40;;
56425;SDS011;42330;43.620;3.856;2022-08-19T01:05:43;0.95;;;0.40;;
56425;SDS011;42330;43.620;3.856;2022-08-19T01:08:10;1.10;;;0.35;;
56425;SDS011;42330;43.620;3.856;2022-08-19T01:10:50;1.10;;;0.50;;
56425;SDS011;42330;43.620;3.856;2022-08-19T01:13:21;0.98;;;0.30;;
56425;SDS011;42330;43.620;3.856;2022-08-19T01:15:52;0.68;;;0.40;;
56425;SDS011;42330;43.620;3.856;2022-08-19T01:18:30;0.93;;;0.40;;
56425;SDS011;42330;43.620;3.856;2022-08-19T01:20:58;1.05;;;0.40;;
56425;SDS011;42330;43.620;3.856;2022-08-19T01:23:28;1.20;;;0.30;;
56425;SDS011;42330;43.620;3.856;2022-08-19T01:26:08;1.15;;;0.45;;
56425;SDS011;42330;43.620;3.856;2022-08-19T01:28:40;0.40;;;0.30;;
56425;SDS011;42330;43.620;3.856;2022-08-19T01:31:12;0.88;;;0.40;;
56425;SDS011;42330;43.620;3.856;2022-08-19T01:33:40;1.20;;;0.40;;
56425;SDS011;42330;43.620;3.856;2022-08-19T01:36:08;0.90;;;0.40;;
56425;SDS011;42330;43.620;3.856;2022-08-19T01:38:36;1.15;;;0.30;;
56425;SDS011;42330;43.620;3.856;2022-08-19T01:41:04;2.10;;;0.40;;
56425;SDS011;42330;43.620;3.856;2022-08-19T01:43:31;1.65;;;0.40;;
56425;SDS011;42330;43.620;3.856;2022-08-19T01:45:57;3.42;;;0.40;;
56425;SDS011;42330;43.620;3.856;2022-08-19T01:48:23;0.50;;;0.35;;
56425;SDS011;42330;43.620;3.856;2022-08-19T01:50:49;0.80;;;0.40;;
56425;SDS011;42330;43.620;3.856;2022-08-19T01:53:14;1.25;;;0.40;;
56425;SDS011;42330;43.620;3.856;2022-08-19T01:55:41;1.67;;;0.40;;
56425;SDS011;42330;43.620;3.856;2022-08-19T01:58:15;1.23;;;0.30;;
56425;SDS011;42330;43.620;3.856;2022-08-19T02:00:45;1.20;;;0.40;;
56425;SDS011;42330;43.620;3.856;2022-08-19T02:03:11;4.22;;;0.50;;
56425;SDS011;42330;43.620;3.856;2022-08-19T02:05:37;2.05;;;0.40;;
56425;SDS011;42330;43.620;3.856;2022-08-19T02:08:04;0.88;;;0.30;;
56425;SDS011;42330;43.620;3.856;2022-08-19T02:10:30;2.75;;;0.35;;
56425;SDS011;42330;43.620;3.856;2022-08-19T02:12:57;1.98;;;0.50;;
56425;SDS011;42330;43.620;3.856;2022-08-19T02:15:22;1.65;;;0.43;;
56425;SDS011;42330;43.620;3.856;2022-08-19T02:17:49;0.50;;;0.35;;
56425;SDS011;42330;43.620;3.856;2022-08-19T02:20:15;1.38;;;0.50;;
56425;SDS011;42330;43.620;3.856;2022-08-19T02:22:42;2.45;;;0.40;;
56425;SDS011;42330;43.620;3.856;2022-08-19T02:25:09;2.97;;;0.40;;
56425;SDS011;42330;43.620;3.856;2022-08-19T02:27:35;1.10;;;0.50;;
56425;SDS011;42330;43.620;3.856;2022-08-19T02:30:02;1.88;;;0.40;;
56425;SDS011;42330;43.620;3.856;2022-08-19T02:32:29;0.82;;;0.50;;
56425;SDS011;42330;43.620;3.856;2022-08-19T02:34:55;1.38;;;0.40;;
56425;SDS011;42330;43.620;3.856;2022-08-19T02:37:21;1.23;;;0.50;;
56425;SDS011;42330;43.620;3.856;2022-08-19T02:40:05;0.77;;;0.40;;
56425;SDS011;42330;43.620;3.856;2022-08-19T02:42:31;3.00;;;0.50;;
56425;SDS011;42330;43.620;3.856;2022-08-19T02:44:57;2.05;;;0.68;;
56425;SDS011;42330;43.620;3.856;2022-08-19T02:47:23;2.30;;;0.60;;
56425;SDS011;42330;43.620;3.856;2022-08-19T02:49:49;1.45;;;0.60;;
56425;SDS011;42330;43.620;3.856;2022-08-19T02:52:15;1.33;;;0.47;;
56425;SDS011;42330;43.620;3.856;2022-08-19T02:54:41;1.98;;;0.60;;
56425;SDS011;42330;43.620;3.856;2022-08-19T02:57:07;0.70;;;0.50;;
56425;SDS011;42330;43.620;3.856;2022-08-19T02:59:33;1.23;;;0.55;;
56425;SDS011;42330;43.620;3.856;2022-08-19T03:01:59;1.70;;;0.50;;
56425;SDS011;42330;43.620;3.856;2022-08-19T03:04:24;1.67;;;0.63;;
56425;SDS011;42330;43.620;3.856;2022-08-19T03:06:50;1.17;;;0.52;;
56425;SDS011;42330;43.620;3.856;2022-08-19T03:09:17;1.42;;;0.60;;
56425;SDS011;42330;43.620;3.856;2022-08-19T03:11:44;1.02;;;0.50;;
56425;SDS011;42330;43.620;3.856;2022-08-19T03:14:10;1.33;;;0.50;;
56425;SDS011;42330;43.620;3.856;2022-08-19T03:16:42;3.53;;;0.63;;
56425;SDS011;42330;43.620;3.856;2022-08-19T03:19:10;1.42;;;0.60;;
56425;SDS011;42330;43.620;3.856;2022-08-19T03:21:36;1.85;;;0.60;;
56425;SDS011;42330;43.620;3.856;2022-08-19T03:24:02;1.88;;;0.82;;
56425;SDS011;42330;43.620;3.856;2022-08-19T03:26:30;0.93;;;0.60;;
56425;SDS011;42330;43.620;3.856;2022-08-19T03:28:56;1.73;;;0.68;;
56425;SDS011;42330;43.620;3.856;2022-08-19T03:31:23;4.82;;;0.73;;
56425;SDS011;42330;43.620;3.856;2022-08-19T03:33:51;1.02;;;0.57;;
56425;SDS011;42330;43.620;3.856;2022-08-19T03:36:18;0.90;;;0.60;;
56425;SDS011;42330;43.620;3.856;2022-08-19T03:38:49;2.45;;;0.70;;
56425;SDS011;42330;43.620;3.856;2022-08-19T03:41:21;4.00;;;0.70;;
56425;SDS011;42330;43.620;3.856;2022-08-19T03:43:49;2.15;;;0.70;;
56425;SDS011;42330;43.620;3.856;2022-08-19T03:46:16;6.18;;;0.80;;
56425;SDS011;42330;43.620;3.856;2022-08-19T03:48:45;2.00;;;0.70;;
56425;SDS011;42330;43.620;3.856;2022-08-19T03:51:17;3.05;;;0.80;;
56425;SDS011;42330;43.620;3.856;2022-08-19T03:53:45;1.77;;;0.70;;
56425;SDS011;42330;43.620;3.856;2022-08-19T03:56:11;4.70;;;1.08;;
56425;SDS011;42330;43.620;3.856;2022-08-19T03:58:38;4.57;;;0.80;;
56425;SDS011;42330;43.620;3.856;2022-08-19T04:01:15;1.25;;;0.77;;
56425;SDS011;42330;43.620;3.856;2022-08-19T04:03:43;2.85;;;0.80;;
56425;SDS011;42330;43.620;3.856;2022-08-19T04:08:41;1.80;;;1.00;;
56425;SDS011;42330;43.620;3.856;2022-08-19T04:11:08;2.80;;;1.02;;
56425;SDS011;42330;43.620;3.856;2022-08-19T04:13:35;3.33;;;1.08;;
56425;SDS011;42330;43.620;3.856;2022-08-19T04:16:02;2.50;;;1.10;;
56425;SDS011;42330;43.620;3.856;2022-08-19T04:18:29;1.83;;;1.02;;
56425;SDS011;42330;43.620;3.856;2022-08-19T04:20:55;2.90;;;0.90;;
56425;SDS011;42330;43.620;3.856;2022-08-19T04:23:22;2.55;;;1.00;;
56425;SDS011;42330;43.620;3.856;2022-08-19T04:25:48;2.50;;;1.08;;
56425;SDS011;42330;43.620;3.856;2022-08-19T04:28:14;4.00;;;1.10;;
56425;SDS011;42330;43.620;3.856;2022-08-19T04:30:41;3.00;;;0.95;;
56425;SDS011;42330;43.620;3.856;2022-08-19T04:33:09;3.38;;;1.10;;
56425;SDS011;42330;43.620;3.856;2022-08-19T04:35:39;2.10;;;1.00;;
56425;SDS011;42330;43.620;3.856;2022-08-19T04:38:08;2.45;;;1.00;;
56425;SDS011;42330;43.620;3.856;2022-08-19T04:40:39;2.03;;;1.10;;
56425;SDS011;42330;43.620;3.856;2022-08-19T04:43:25;2.53;;;1.23;;
56425;SDS011;42330;43.620;3.856;2022-08-19T04:45:51;4.53;;;1.05;;
56425;SDS011;42330;43.620;3.856;2022-08-19T04:48:16;2.35;;;1.25;;
56425;SDS011;42330;43.620;3.856;2022-08-19T04:53:26;3.47;;;1.20;;
56425;SDS011;42330;43.620;3.856;2022-08-19T04:55:54;5.35;;;1.15;;
56425;SDS011;42330;43.620;3.856;2022-08-19T04:58:21;4.25;;;1.20;;
56425;SDS011;42330;43.620;3.856;2022-08-19T05:00:48;2.65;;;1.23;;
56425;SDS011;42330;43.620;3.856;2022-08-19T05:03:13;4.55;;;1.38;;
56425;SDS011;42330;43.620;3.856;2022-08-19T05:05:42;2.33;;;1.20;;
56425;SDS011;42330;43.620;3.856;2022-08-19T05:08:09;3.17;;;1.20;;
56425;SDS011;42330;43.620;3.856;2022-08-19T05:10:36;5.88;;;1.42;;
56425;SDS011;42330;43.620;3.856;2022-08-19T05:13:03;3.72;;;1.38;;
56425;SDS011;42330;43.620;3.856;2022-08-19T05:15:29;2.97;;;1.10;;
56425;SDS011;42330;43.620;3.856;2022-08-19T05:17:55;2.35;;;1.30;;
56425;SDS011;42330;43.620;3.856;2022-08-19T05:20:39;3.97;;;1.30;;
56425;SDS011;42330;43.620;3.856;2022-08-19T05:23:23;2.28;;;1.30;;
56425;SDS011;42330;43.620;3.856;2022-08-19T05:25:50;2.65;;;1.10;;
56425;SDS011;42330;43.620;3.856;2022-08-19T05:28:17;2.72;;;1.10;;
56425;SDS011;42330;43.620;3.856;2022-08-19T05:30:44;4.18;;;1.23;;
56425;SDS011;42330;43.620;3.856;2022-08-19T05:33:10;3.45;;;1.30;;
56425;SDS011;42330;43.620;3.856;2022-08-19T05:35:37;1.92;;;1.25;;
56425;SDS011;42330;43.620;3.856;2022-08-19T05:38:04;3.10;;;1.30;;
56425;SDS011;42330;43.620;3.856;2022-08-19T05:40:33;2.33;;;1.13;;
56425;SDS011;42330;43.620;3.856;2022-08-19T05:43:04;3.10;;;1.30;;
56425;SDS011;42330;43.620;3.856;2022-08-19T05:45:31;6.05;;;1.30;;
56425;SDS011;42330;43.620;3.856;2022-08-19T05:47:57;3.38;;;1.30;;
56425;SDS011;42330;43.620;3.856;2022-08-19T05:50:23;4.05;;;1.30;;
56425;SDS011;42330;43.620;3.856;2022-08-19T05:52:51;1.95;;;1.30;;
56425;SDS011;42330;43.620;3.856;2022-08-19T05:55:17;5.97;;;1.35;;
56425;SDS011;42330;43.620;3.856;2022-08-19T05:57:45;5.72;;;1.30;;
56425;SDS011;42330;43.620;3.856;2022-08-19T06:00:11;3.03;;;1.30;;
56425;SDS011;42330;43.620;3.856;2022-08-19T06:02:38;3.88;;;1.13;;
56425;SDS011;42330;43.620;3.856;2022-08-19T06:05:05;9.93;;;2.53;;
56425;SDS011;42330;43.620;3.856;2022-08-19T06:07:33;3.15;;;1.38;;
56425;SDS011;42330;43.620;3.856;2022-08-19T06:10:04;3.75;;;1.30;;
56425;SDS011;42330;43.620;3.856;2022-08-19T06:12:32;3.28;;;1.38;;
56425;SDS011;42330;43.620;3.856;2022-08-19T06:15:00;2.85;;;1.30;;
56425;SDS011;42330;43.620;3.856;2022-08-19T06:17:44;4.35;;;1.30;;
56425;SDS011;42330;43.620;3.856;2022-08-19T06:20:11;6.45;;;1.60;;
56425;SDS011;42330;43.620;3.856;2022-08-19T06:22:39;4.50;;;1.50;;
56425;SDS011;42330;43.620;3.856;2022-08-19T06:25:07;2.17;;;1.23;;
56425;SDS011;42330;43.620;3.856;2022-08-19T06:27:34;3.63;;;1.40;;
56425;SDS011;42330;43.620;3.856;2022-08-19T06:30:01;2.55;;;1.20;;
56425;SDS011;42330;43.620;3.856;2022-08-19T06:32:28;5.85;;;1.25;;
56425;SDS011;42330;43.620;3.856;2022-08-19T06:34:54;3.83;;;1.23;;
56425;SDS011;42330;43.620;3.856;2022-08-19T06:37:20;3.00;;;1.20;;
56425;SDS011;42330;43.620;3.856;2022-08-19T06:39:46;3.80;;;1.50;;
56425;SDS011;42330;43.620;3.856;2022-08-19T06:42:12;4.15;;;1.20;;
56425;SDS011;42330;43.620;3.856;2022-08-19T06:44:41;3.88;;;1.40;;
56425;SDS011;42330;43.620;3.856;2022-08-19T06:47:08;2.60;;;1.35;;
56425;SDS011;42330;43.620;3.856;2022-08-19T06:49:36;3.65;;;1.30;;
56425;SDS011;42330;43.620;3.856;2022-08-19T06:52:02;4.50;;;1.33;;
56425;SDS011;42330;43.620;3.856;2022-08-19T06:54:28;2.47;;;1.25;;
56425;SDS011;42330;43.620;3.856;2022-08-19T06:56:54;4.40;;;1.40;;
56425;SDS011;42330;43.620;3.856;2022-08-19T06:59:22;2.47;;;1.30;;
56425;SDS011;42330;43.620;3.856;2022-08-19T07:01:53;4.57;;;1.55;;
56425;SDS011;42330;43.620;3.856;2022-08-19T07:04:25;4.50;;;1.20;;
56425;SDS011;42330;43.620;3.856;2022-08-19T07:07:01;4.28;;;1.40;;
56425;SDS011;42330;43.620;3.856;2022-08-19T07:09:33;5.55;;;1.33;;
56425;SDS011;42330;43.620;3.856;2022-08-19T07:12:02;3.83;;;1.00;;
56425;SDS011;42330;43.620;3.856;2022-08-19T07:14:31;2.50;;;1.38;;
56425;SDS011;42330;43.620;3.856;2022-08-19T07:17:02;2.13;;;1.30;;
56425;SDS011;42330;43.620;3.856;2022-08-19T07:19:30;5.32;;;1.13;;
56425;SDS011;42330;43.620;3.856;2022-08-19T07:21:56;4.10;;;1.20;;
56425;SDS011;42330;43.620;3.856;2022-08-19T07:24:23;4.63;;;1.40;;
56425;SDS011;42330;43.620;3.856;2022-08-19T07:26:50;2.72;;;1.42;;
56425;SDS011;42330;43.620;3.856;2022-08-19T07:29:18;2.50;;;1.27;;
56425;SDS011;42330;43.620;3.856;2022-08-19T07:31:48;1.73;;;1.25;;
56425;SDS011;42330;43.620;3.856;2022-08-19T07:34:15;3.25;;;1.30;;
56425;SDS011;42330;43.620;3.856;2022-08-19T07:36:41;3.17;;;1.38;;
56425;SDS011;42330;43.620;3.856;2022-08-19T07:39:27;2.63;;;1.08;;
56425;SDS011;42330;43.620;3.856;2022-08-19T07:41:56;1.80;;;1.40;;
56425;SDS011;42330;43.620;3.856;2022-08-19T07:44:24;3.88;;;1.50;;
56425;SDS011;42330;43.620;3.856;2022-08-19T07:46:51;7.40;;;1.65;;
56425;SDS011;42330;43.620;3.856;2022-08-19T07:49:20;4.15;;;1.23;;
56425;SDS011;42330;43.620;3.856;2022-08-19T07:51:48;2.47;;;1.30;;
56425;SDS011;42330;43.620;3.856;2022-08-19T07:54:17;3.65;;;1.10;;
56425;SDS011;42330;43.620;3.856;2022-08-19T07:56:45;5.05;;;1.25;;
56425;SDS011;42330;43.620;3.856;2022-08-19T07:59:10;2.13;;;1.08;;
56425;SDS011;42330;43.620;3.856;2022-08-19T08:01:37;5.13;;;1.35;;
56425;SDS011;42330;43.620;3.856;2022-08-19T08:04:05;3.50;;;1.33;;
56425;SDS011;42330;43.620;3.856;2022-08-19T08:07:07;2.25;;;1.13;;
56425;SDS011;42330;43.620;3.856;2022-08-19T08:09:52;1.70;;;1.00;;
56425;SDS011;42330;43.620;3.856;2022-08-19T08:12:23;2.20;;;1.10;;
56425;SDS011;42330;43.620;3.856;2022-08-19T08:14:53;4.10;;;1.20;;
56425;SDS011;42330;43.620;3.856;2022-08-19T08:17:22;3.05;;;1.10;;
56425;SDS011;42330;43.620;3.856;2022-08-19T08:19:50;2.03;;;1.00;;
56425;SDS011;42330;43.620;3.856;2022-08-19T08:22:17;3.90;;;1.00;;
56425;SDS011;42330;43.620;3.856;2022-08-19T08:25:13;2.97;;;1.00;;
56425;SDS011;42330;43.620;3.856;2022-08-19T08:27:41;2.75;;;1.10;;
56425;SDS011;42330;43.620;3.856;2022-08-19T08:30:09;3.28;;;1.25;;
56425;SDS011;42330;43.620;3.856;2022-08-19T08:32:37;2.78;;;1.00;;
56425;SDS011;42330;43.620;3.856;2022-08-19T08:35:04;2.63;;;1.10;;
56425;SDS011;42330;43.620;3.856;2022-08-19T08:37:32;3.58;;;1.10;;
56425;SDS011;42330;43.620;3.856;2022-08-19T08:39:58;2.83;;;1.10;;
56425;SDS011;42330;43.620;3.856;2022-08-19T08:42:31;3.10;;;0.90;;
56425;SDS011;42330;43.620;3.856;2022-08-19T08:47:34;4.35;;;1.05;;
56425;SDS011;42330;43.620;3.856;2022-08-19T08:50:13;2.78;;;1.23;;
56425;SDS011;42330;43.620;3.856;2022-08-19T08:52:45;2.95;;;1.10;;
56425;SDS011;42330;43.620;3.856;2022-08-19T08:55:14;4.82;;;1.30;;
56425;SDS011;42330;43.620;3.856;2022-08-19T09:00:18;5.55;;;1.10;;
56425;SDS011;42330;43.620;3.856;2022-08-19T09:02:55;3.63;;;1.10;;
56425;SDS011;42330;43.620;3.856;2022-08-19T09:05:22;5.80;;;1.15;;
56425;SDS011;42330;43.620;3.856;2022-08-19T09:10:44;2.03;;;1.00;;
56425;SDS011;42330;43.620;3.856;2022-08-19T09:16:02;2.92;;;0.90;;
56425;SDS011;42330;43.620;3.856;2022-08-19T09:18:38;2.83;;;1.13;;
56425;SDS011;42330;43.620;3.856;2022-08-19T09:21:17;12.15;;;1.25;;
56425;SDS011;42330;43.620;3.856;2022-08-19T09:23:43;1.63;;;0.80;;
56425;SDS011;42330;43.620;3.856;2022-08-19T09:26:13;5.28;;;1.23;;
56425;SDS011;42330;43.620;3.856;2022-08-19T09:28:40;5.40;;;1.10;;
56425;SDS011;42330;43.620;3.856;2022-08-19T09:31:09;3.22;;;1.00;;
56425;SDS011;42330;43.620;3.856;2022-08-19T09:33:36;4.13;;;1.00;;
56425;SDS011;42330;43.620;3.856;2022-08-19T09:36:04;2.70;;;0.90;;
56425;SDS011;42330;43.620;3.856;2022-08-19T09:38:32;2.20;;;0.90;;
56425;SDS011;42330;43.620;3.856;2022-08-19T09:41:03;2.63;;;0.90;;
56425;SDS011;42330;43.620;3.856;2022-08-19T09:43:30;10.27;;;1.30;;
56425;SDS011;42330;43.620;3.856;2022-08-19T09:45:57;6.63;;;1.25;;
56425;SDS011;42330;43.620;3.856;2022-08-19T09:48:23;3.45;;;1.00;;
56425;SDS011;42330;43.620;3.856;2022-08-19T09:50:49;1.58;;;0.70;;
56425;SDS011;42330;43.620;3.856;2022-08-19T09:53:16;3.90;;;0.70;;
56425;SDS011;42330;43.620;3.856;2022-08-19T09:55:42;1.80;;;0.80;;
56425;SDS011;42330;43.620;3.856;2022-08-19T09:58:08;3.00;;;0.90;;
56425;SDS011;42330;43.620;3.856;2022-08-19T10:00:36;4.57;;;1.00;;
56425;SDS011;42330;43.620;3.856;2022-08-19T10:03:02;1.55;;;0.80;;
56425;SDS011;42330;43.620;3.856;2022-08-19T10:05:28;3.75;;;0.90;;
56425;SDS011;42330;43.620;3.856;2022-08-19T10:08:12;1.75;;;0.95;;
56425;SDS011;42330;43.620;3.856;2022-08-19T10:10:38;2.70;;;0.90;;
56425;SDS011;42330;43.620;3.856;2022-08-19T10:13:09;4.90;;;0.90;;
56425;SDS011;42330;43.620;3.856;2022-08-19T10:15:35;2.70;;;1.00;;
56425;SDS011;42330;43.620;3.856;2022-08-19T10:18:03;2.90;;;1.08;;
56425;SDS011;42330;43.620;3.856;2022-08-19T10:20:28;5.07;;;0.90;;
56425;SDS011;42330;43.620;3.856;2022-08-19T10:22:55;2.97;;;0.90;;
56425;SDS011;42330;43.620;3.856;2022-08-19T10:25:20;2.40;;;0.80;;
56425;SDS011;42330;43.620;3.856;2022-08-19T10:27:46;1.75;;;0.80;;
56425;SDS011;42330;43.620;3.856;2022-08-19T10:30:12;5.53;;;0.90;;
56425;SDS011;42330;43.620;3.856;2022-08-19T10:32:38;1.10;;;0.80;;
56425;SDS011;42330;43.620;3.856;2022-08-19T10:35:04;1.27;;;0.80;;
56425;SDS011;42330;43.620;3.856;2022-08-19T10:37:33;1.40;;;0.77;;
56425;SDS011;42330;43.620;3.856;2022-08-19T10:39:59;2.67;;;0.80;;
56425;SDS011;42330;43.620;3.856;2022-08-19T10:42:26;1.48;;;0.80;;
56425;SDS011;42330;43.620;3.856;2022-08-19T10:44:52;2.17;;;0.70;;
56425;SDS011;42330;43.620;3.856;2022-08-19T10:47:18;2.13;;;0.80;;
56425;SDS011;42330;43.620;3.856;2022-08-19T10:49:43;2.03;;;0.90;;
56425;SDS011;42330;43.620;3.856;2022-08-19T10:52:28;3.53;;;0.73;;
56425;SDS011;42330;43.620;3.856;2022-08-19T10:55:03;1.95;;;0.77;;
56425;SDS011;42330;43.620;3.856;2022-08-19T10:57:50;2.97;;;0.80;;
56425;SDS011;42330;43.620;3.856;2022-08-19T11:00:17;3.05;;;0.77;;
56425;SDS011;42330;43.620;3.856;2022-08-19T11:02:44;1.35;;;0.63;;
56425;SDS011;42330;43.620;3.856;2022-08-19T11:05:11;3.38;;;0.85;;
56425;SDS011;42330;43.620;3.856;2022-08-19T11:07:38;1.25;;;0.90;;
56425;SDS011;42330;43.620;3.856;2022-08-19T11:10:05;4.32;;;0.80;;
56425;SDS011;42330;43.620;3.856;2022-08-19T11:12:32;1.30;;;0.80;;
56425;SDS011;42330;43.620;3.856;2022-08-19T11:14:58;2.10;;;0.80;;
56425;SDS011;42330;43.620;3.856;2022-08-19T11:17:24;2.30;;;0.95;;
56425;SDS011;42330;43.620;3.856;2022-08-19T11:19:49;1.42;;;0.75;;
56425;SDS011;42330;43.620;3.856;2022-08-19T11:22:15;7.03;;;0.85;;
56425;SDS011;42330;43.620;3.856;2022-08-19T11:24:42;1.70;;;0.80;;
56425;SDS011;42330;43.620;3.856;2022-08-19T11:27:08;2.20;;;0.90;;
56425;SDS011;42330;43.620;3.856;2022-08-19T11:29:35;1.77;;;0.90;;
56425;SDS011;42330;43.620;3.856;2022-08-19T11:32:04;1.80;;;0.80;;
56425;SDS011;42330;43.620;3.856;2022-08-19T11:34:32;1.60;;;0.80;;
56425;SDS011;42330;43.620;3.856;2022-08-19T11:36:57;3.63;;;0.80;;
56425;SDS011;42330;43.620;3.856;2022-08-19T11:39:25;1.33;;;0.70;;
56425;SDS011;42330;43.620;3.856;2022-08-19T11:41:52;1.88;;;0.80;;
56425;SDS011;42330;43.620;3.856;2022-08-19T11:44:18;2.03;;;0.82;;
56425;SDS011;42330;43.620;3.856;2022-08-19T11:46:44;3.75;;;0.88;;
56425;SDS011;42330;43.620;3.856;2022-08-19T11:49:11;2.40;;;0.88;;
56425;SDS011;42330;43.620;3.856;2022-08-19T11:51:38;3.35;;;0.90;;
56425;SDS011;42330;43.620;3.856;2022-08-19T11:54:04;2.33;;;0.80;;
56425;SDS011;42330;43.620;3.856;2022-08-19T11:56:31;2.22;;;0.80;;
56425;SDS011;42330;43.620;3.856;2022-08-19T11:58:57;1.50;;;0.88;;
56425;SDS011;42330;43.620;3.856;2022-08-19T12:01:23;2.97;;;0.73;;
56425;SDS011;42330;43.620;3.856;2022-08-19T12:03:51;3.50;;;0.77;;
56425;SDS011;42330;43.620;3.856;2022-08-19T12:06:21;1.83;;;0.90;;
56425;SDS011;42330;43.620;3.856;2022-08-19T12:08:50;1.60;;;0.80;;
56425;SDS011;42330;43.620;3.856;2022-08-19T12:11:16;4.15;;;0.82;;
56425;SDS011;42330;43.620;3.856;2022-08-19T12:13:42;2.65;;;0.90;;
56425;SDS011;42330;43.620;3.856;2022-08-19T12:16:16;1.33;;;0.82;;
56425;SDS011;42330;43.620;3.856;2022-08-19T12:18:44;4.40;;;0.65;;
56425;SDS011;42330;43.620;3.856;2022-08-19T12:21:15;3.53;;;0.80;;
56425;SDS011;42330;43.620;3.856;2022-08-19T12:23:43;2.83;;;0.77;;
56425;SDS011;42330;43.620;3.856;2022-08-19T12:26:10;2.65;;;0.88;;
56425;SDS011;42330;43.620;3.856;2022-08-19T12:28:37;2.17;;;0.80;;
56425;SDS011;42330;43.620;3.856;2022-08-19T12:31:03;1.65;;;0.82;;
56425;SDS011;42330;43.620;3.856;2022-08-19T12:33:29;1.77;;;0.90;;
56425;SDS011;42330;43.620;3.856;2022-08-19T12:35:59;3.03;;;0.90;;
56425;SDS011;42330;43.620;3.856;2022-08-19T12:38:27;2.80;;;0.80;;
56425;SDS011;42330;43.620;3.856;2022-08-19T12:40:53;1.98;;;0.70;;
56425;SDS011;42330;43.620;3.856;2022-08-19T12:43:19;1.60;;;0.68;;
56425;SDS011;42330;43.620;3.856;2022-08-19T12:45:46;2.90;;;0.80;;
56425;SDS011;42330;43.620;3.856;2022-08-19T12:48:13;3.42;;;0.80;;
56425;SDS011;42330;43.620;3.856;2022-08-19T12:50:40;2.83;;;0.80;;
56425;SDS011;42330;43.620;3.856;2022-08-19T12:53:07;3.90;;;0.93;;
56425;SDS011;42330;43.620;3.856;2022-08-19T12:55:33;2.83;;;0.90;;
56425;SDS011;42330;43.620;3.856;2022-08-19T12:57:59;1.73;;;0.80;;
56425;SDS011;42330;43.620;3.856;2022-08-19T13:00:26;1.10;;;0.70;;
56425;SDS011;42330;43.620;3.856;2022-08-19T13:02:52;0.98;;;0.70;;
56425;SDS011;42330;43.620;3.856;2022-08-19T13:05:21;2.58;;;0.88;;
56425;SDS011;42330;43.620;3.856;2022-08-19T13:07:52;2.60;;;0.60;;
56425;SDS011;42330;43.620;3.856;2022-08-19T13:10:21;2.28;;;0.80;;
56425;SDS011;42330;43.620;3.856;2022-08-19T13:12:50;1.90;;;0.60;;
56425;SDS011;42330;43.620;3.856;2022-08-19T13:15:17;6.93;;;0.80;;
56425;SDS011;42330;43.620;3.856;2022-08-19T13:17:50;2.05;;;0.70;;
56425;SDS011;42330;43.620;3.856;2022-08-19T13:20:18;3.67;;;0.88;;
56425;SDS011;42330;43.620;3.856;2022-08-19T13:22:45;1.25;;;0.80;;
56425;SDS011;42330;43.620;3.856;2022-08-19T13:25:12;3.17;;;0.70;;
56425;SDS011;42330;43.620;3.856;2022-08-19T13:27:38;2.42;;;0.60;;
56425;SDS011;42330;43.620;3.856;2022-08-19T13:30:06;1.40;;;0.70;;
56425;SDS011;42330;43.620;3.856;2022-08-19T13:32:52;1.52;;;0.70;;
56425;SDS011;42330;43.620;3.856;2022-08-19T13:38:09;1.42;;;0.60;;
56425;SDS011;42330;43.620;3.856;2022-08-19T13:40:35;1.27;;;0.60;;
56425;SDS011;42330;43.620;3.856;2022-08-19T13:43:02;1.38;;;0.60;;
56425;SDS011;42330;43.620;3.856;2022-08-19T13:45:29;4.15;;;0.80;;
56425;SDS011;42330;43.620;3.856;2022-08-19T13:48:00;0.70;;;0.50;;
56425;SDS011;42330;43.620;3.856;2022-08-19T13:50:32;2.03;;;0.60;;
56425;SDS011;42330;43.620;3.856;2022-08-19T13:52:58;1.33;;;0.65;;
56425;SDS011;42330;43.620;3.856;2022-08-19T13:55:25;1.30;;;0.60;;
56425;SDS011;42330;43.620;3.856;2022-08-19T13:57:55;3.28;;;0.63;;
56425;SDS011;42330;43.620;3.856;2022-08-19T14:00:23;0.95;;;0.60;;
56425;SDS011;42330;43.620;3.856;2022-08-19T14:02:52;2.95;;;0.80;;
56425;SDS011;42330;43.620;3.856;2022-08-19T14:05:19;0.95;;;0.50;;
56425;SDS011;42330;43.620;3.856;2022-08-19T14:07:45;2.30;;;0.80;;
56425;SDS011;42330;43.620;3.856;2022-08-19T14:10:13;3.05;;;0.70;;
56425;SDS011;42330;43.620;3.856;2022-08-19T14:12:40;2.42;;;0.60;;
56425;SDS011;42330;43.620;3.856;2022-08-19T14:15:07;3.92;;;0.63;;
56425;SDS011;42330;43.620;3.856;2022-08-19T14:17:36;1.27;;;0.70;;
56425;SDS011;42330;43.620;3.856;2022-08-19T14:20:04;1.52;;;0.60;;
56425;SDS011;42330;43.620;3.856;2022-08-19T14:22:35;1.50;;;0.70;;
56425;SDS011;42330;43.620;3.856;2022-08-19T14:25:02;4.78;;;0.77;;
56425;SDS011;42330;43.620;3.856;2022-08-19T14:27:30;1.45;;;0.80;;
56425;SDS011;42330;43.620;3.856;2022-08-19T14:29:59;3.40;;;0.68;;
56425;SDS011;42330;43.620;3.856;2022-08-19T14:32:24;1.00;;;0.70;;
56425;SDS011;42330;43.620;3.856;2022-08-19T14:34:52;1.95;;;0.60;;
56425;SDS011;42330;43.620;3.856;2022-08-19T14:37:18;1.63;;;0.65;;
56425;SDS011;42330;43.620;3.856;2022-08-19T14:39:44;2.08;;;0.70;;
56425;SDS011;42330;43.620;3.856;2022-08-19T14:42:10;1.88;;;0.80;;
56425;SDS011;42330;43.620;3.856;2022-08-19T14:44:36;3.72;;;0.60;;
56425;SDS011;42330;43.620;3.856;2022-08-19T14:47:03;2.33;;;0.55;;
56425;SDS011;42330;43.620;3.856;2022-08-19T14:49:31;2.13;;;0.60;;
56425;SDS011;42330;43.620;3.856;2022-08-19T14:51:57;2.25;;;0.60;;
56425;SDS011;42330;43.620;3.856;2022-08-19T14:54:23;1.00;;;0.60;;
56425;SDS011;42330;43.620;3.856;2022-08-19T14:56:49;1.15;;;0.65;;
56425;SDS011;42330;43.620;3.856;2022-08-19T14:59:15;2.20;;;0.60;;
56425;SDS011;42330;43.620;3.856;2022-08-19T15:01:41;4.00;;;0.60;;
56425;SDS011;42330;43.620;3.856;2022-08-19T15:04:06;1.27;;;0.50;;
56425;SDS011;42330;43.620;3.856;2022-08-19T15:06:32;2.70;;;0.60;;
56425;SDS011;42330;43.620;3.856;2022-08-19T15:08:58;1.90;;;0.50;;
56425;SDS011;42330;43.620;3.856;2022-08-19T15:11:26;0.65;;;0.50;;
56425;SDS011;42330;43.620;3.856;2022-08-19T15:13:53;1.30;;;0.70;;